Time;durP1;ratioP1;P1;durP2;ratioP2;P2;SDS_P1;SDS_P2;PMS_P1;PMS_P2;Temp;Humidity;BMP_temperature;BMP_pressure;BME280_temperature;BME280_humidity;BME280_pressure;Samples;Min_cycle;Max_cycle;Signal;HPM_P1;HPM_P2
2023/12/30 00:02:10;;;;;;;47.80;25.58;;;;;;;10.37;81.32;100447.88;5089075;28;20479;-83
2023/12/30 00:04:35;;;;;;;43.93;24.73;;;;;;;10.36;81.37;100449.59;5089274;28;20077;-84
2023/12/30 00:07:01;;;;;;;50.57;28.10;;;;;;;10.39;81.06;100457.53;5089263;28;20026;-82
2023/12/30 00:09:26;;;;;;;50.20;26.98;;;;;;;10.37;81.29;100451.38;5089070;28;20028;-84
2023/12/30 00:11:53;;;;;;;50.23;25.67;;;;;;;10.34;80.88;100452.25;5089144;28;20048;-83
2023/12/30 00:14:19;;;;;;;44.58;24.83;;;;;;;10.32;80.70;100458.38;5088889;28;20019;-83
2023/12/30 00:16:44;;;;;;;39.83;23.27;;;;;;;10.28;80.67;100447.00;5088975;28;20032;-83
2023/12/30 00:19:11;;;;;;;35.93;20.00;;;;;;;10.22;80.04;100449.59;5089001;28;20031;-85
2023/12/30 00:21:37;;;;;;;35.22;20.20;;;;;;;10.16;79.94;100445.25;5102826;28;20024;-82
2023/12/30 00:24:03;;;;;;;35.13;18.97;;;;;;;10.08;79.88;100443.47;5096028;28;20052;-85
2023/12/30 00:26:28;;;;;;;37.22;18.45;;;;;;;10.02;79.54;100433.81;5095704;28;20020;-81
2023/12/30 00:28:54;;;;;;;34.70;18.60;;;;;;;9.96;79.36;100432.03;5088518;28;20028;-82
2023/12/30 00:31:27;;;;;;;35.28;18.98;;;;;;;9.91;79.14;100428.53;5088957;28;20103;-83
2023/12/30 00:33:55;;;;;;;35.37;17.47;;;;;;;9.88;78.88;100426.78;5088765;28;20020;-82
2023/12/30 00:36:20;;;;;;;30.90;16.08;;;;;;;9.87;79.26;100424.16;5088689;28;20551;-83
2023/12/30 00:38:45;;;;;;;33.27;16.83;;;;;;;9.90;79.71;100418.91;5089843;28;20158;-84
2023/12/30 00:41:13;;;;;;;33.10;18.20;;;;;;;9.91;79.37;100416.28;5093043;28;20050;-84
2023/12/30 00:43:39;;;;;;;36.60;17.73;;;;;;;9.94;79.21;100414.53;5092213;28;20271;-83
2023/12/30 00:46:05;;;;;;;32.92;18.17;;;;;;;9.95;79.38;100413.66;5092364;28;20039;-83
2023/12/30 00:48:31;;;;;;;30.93;16.77;;;;;;;9.97;78.99;100414.53;5092588;28;20426;-84
2023/12/30 00:50:56;;;;;;;32.08;18.08;;;;;;;9.99;79.13;100407.50;5092319;28;20042;-83
2023/12/30 00:53:22;;;;;;;38.93;20.10;;;;;;;9.97;79.10;100404.88;5092026;28;20516;-83
2023/12/30 00:55:47;;;;;;;35.70;19.27;;;;;;;9.96;79.02;100391.72;5092446;28;20131;-84
2023/12/30 00:58:13;;;;;;;37.73;20.47;;;;;;;9.96;79.42;100394.34;5092016;28;20289;-83
2023/12/30 01:00:38;;;;;;;35.93;19.77;;;;;;;9.94;79.38;100396.97;5073545;28;20032;-82
2023/12/30 01:03:03;;;;;;;39.67;21.00;;;;;;;9.93;79.58;100384.69;5073832;28;20541;-82
2023/12/30 01:05:29;;;;;;;43.10;20.27;;;;;;;9.90;79.20;100380.34;5074081;28;20024;-82
2023/12/30 01:07:54;;;;;;;43.83;21.57;;;;;;;9.90;79.56;100377.69;5091975;28;20036;-82
2023/12/30 01:10:19;;;;;;;40.73;21.50;;;;;;;9.88;79.86;100376.78;5073686;28;20471;-83
2023/12/30 01:12:45;;;;;;;38.03;20.63;;;;;;;9.87;79.83;100379.44;5073910;28;20031;-83
2023/12/30 01:15:10;;;;;;;34.27;19.73;;;;;;;9.86;79.54;100385.59;5091347;28;20028;-82
2023/12/30 01:17:36;;;;;;;37.03;20.07;;;;;;;9.85;79.74;100392.56;5091936;28;20371;-82
2023/12/30 01:20:02;;;;;;;38.43;20.37;;;;;;;9.86;79.55;100396.09;5092124;28;20077;-82
2023/12/30 01:22:27;;;;;;;36.60;20.05;;;;;;;9.87;79.84;100397.84;5112165;28;20112;-82
2023/12/30 01:24:53;;;;;;;39.50;22.70;;;;;;;9.82;79.34;100399.59;5110388;28;20515;-84
2023/12/30 01:27:18;;;;;;;35.33;19.70;;;;;;;9.71;79.38;100399.59;5091681;28;20099;-82
2023/12/30 01:29:43;;;;;;;37.40;19.53;;;;;;;9.66;79.71;100402.19;5091023;28;20040;-82
2023/12/30 01:32:09;;;;;;;36.87;18.87;;;;;;;9.62;80.21;100411.81;5091408;28;20024;-82
2023/12/30 01:34:35;;;;;;;33.00;18.63;;;;;;;9.65;80.02;100408.34;5091592;28;20875;-82
2023/12/30 01:37:01;;;;;;;37.10;19.63;;;;;;;9.64;80.06;100414.47;5091481;28;20021;-83
2023/12/30 01:39:26;;;;;;;35.53;19.05;;;;;;;9.60;79.69;100415.34;5091606;28;20264;-82
2023/12/30 01:41:52;;;;;;;35.20;19.20;;;;;;;9.55;79.83;100406.56;5073427;28;20476;-83
2023/12/30 01:44:17;;;;;;;33.90;19.17;;;;;;;9.54;79.97;100404.81;5090797;28;20070;-82
2023/12/30 01:46:43;;;;;;;37.23;19.03;;;;;;;9.51;79.85;100399.53;5091181;28;20115;-82
2023/12/30 01:49:09;;;;;;;35.60;19.52;;;;;;;9.47;80.30;100389.00;5090704;28;20062;-82
2023/12/30 01:51:35;;;;;;;34.63;18.70;;;;;;;9.47;80.03;100388.16;5091074;28;20036;-84
2023/12/30 01:54:01;;;;;;;31.57;16.90;;;;;;;9.45;80.13;100390.75;5090991;28;20029;-82
2023/12/30 01:56:27;;;;;;;30.33;17.35;;;;;;;9.43;80.14;100378.50;5091083;28;20143;-82
2023/12/30 01:58:53;;;;;;;32.13;17.48;;;;;;;9.45;80.32;100379.38;5090914;28;20039;-83
2023/12/30 02:01:24;;;;;;;33.57;16.83;;;;;;;9.46;80.36;100381.13;5091099;28;20028;-82
2023/12/30 02:03:50;;;;;;;33.92;16.40;;;;;;;9.47;79.92;100375.88;5072742;28;20107;-82
2023/12/30 02:06:15;;;;;;;29.77;15.95;;;;;;;9.54;80.32;100389.06;5091200;28;20154;-83
2023/12/30 02:08:40;;;;;;;33.10;16.37;;;;;;;9.57;80.12;100384.66;5091039;28;20451;-83
2023/12/30 02:11:06;;;;;;;32.10;16.40;;;;;;;9.61;79.53;100385.53;5090618;28;20035;-83
2023/12/30 02:13:32;;;;;;;35.50;17.52;;;;;;;9.63;79.43;100391.69;5090532;28;20293;-81
2023/12/30 02:15:57;;;;;;;32.10;16.93;;;;;;;9.60;79.59;100382.03;5072381;28;20031;-85
2023/12/30 02:18:22;;;;;;;32.80;17.07;;;;;;;9.56;79.40;100382.03;5090884;28;20016;-83
2023/12/30 02:20:48;;;;;;;29.40;16.38;;;;;;;9.48;79.33;100375.00;5079509;28;20027;-82
2023/12/30 02:23:13;;;;;;;27.77;16.13;;;;;;;9.44;79.61;100388.16;5110868;28;20136;-82
2023/12/30 02:25:39;;;;;;;29.53;15.50;;;;;;;9.42;79.28;100377.63;5102904;28;20048;-83
2023/12/30 02:28:04;;;;;;;29.90;15.73;;;;;;;9.42;79.68;100382.88;5090326;28;20031;-82
2023/12/30 02:30:29;;;;;;;30.40;15.40;;;;;;;9.44;79.58;100383.75;5090159;28;20039;-82
2023/12/30 02:32:57;;;;;;;33.50;15.60;;;;;;;9.48;79.39;100382.03;5090283;28;20035;-82
2023/12/30 02:35:23;;;;;;;31.60;15.10;;;;;;;9.51;79.44;100384.66;5090268;28;20032;-84
2023/12/30 02:37:49;;;;;;;34.70;17.85;;;;;;;9.55;79.10;100391.66;5090263;28;20162;-82
2023/12/30 02:40:14;;;;;;;35.17;17.25;;;;;;;9.55;78.91;100386.41;5090492;28;20114;-84
2023/12/30 02:42:40;;;;;;;32.83;16.63;;;;;;;9.53;78.99;100384.66;5090210;28;20035;-82
2023/12/30 02:45:06;;;;;;;35.00;16.27;;;;;;;9.53;79.35;100382.03;5089663;28;20028;-84
2023/12/30 02:47:31;;;;;;;30.70;16.20;;;;;;;9.53;79.32;100387.28;5090140;28;20488;-84
2023/12/30 02:49:57;;;;;;;29.07;16.33;;;;;;;9.54;79.15;100389.06;5089727;28;20024;-83
2023/12/30 02:52:22;;;;;;;28.13;15.80;;;;;;;9.56;79.05;100392.56;5089945;28;20691;-83
2023/12/30 02:54:47;;;;;;;31.87;16.70;;;;;;;9.60;79.52;100389.91;5089937;28;20077;-84
2023/12/30 02:57:13;;;;;;;32.27;17.43;;;;;;;9.58;78.72;100388.19;5090575;28;20026;-82
2023/12/30 02:59:38;;;;;;;30.40;16.30;;;;;;;9.53;79.33;100387.28;5089754;28;20202;-84
2023/12/30 03:02:04;;;;;;;30.33;16.15;;;;;;;9.44;79.35;100391.63;5089486;28;20028;-82
2023/12/30 03:04:29;;;;;;;31.07;15.83;;;;;;;9.45;79.52;100396.03;5090177;28;20051;-81
2023/12/30 03:06:54;;;;;;;27.07;15.10;;;;;;;9.45;79.19;100396.03;5071752;28;20034;-84
2023/12/30 03:09:20;;;;;;;27.60;15.50;;;;;;;9.47;79.19;100393.41;5090112;28;20111;-84
2023/12/30 03:11:45;;;;;;;35.47;15.80;;;;;;;9.51;79.54;100395.16;5089485;28;20304;-82
2023/12/30 03:14:11;;;;;;;31.00;16.17;;;;;;;9.54;79.29;100389.06;5089599;28;20020;-82
2023/12/30 03:16:36;;;;;;;33.83;16.60;;;;;;;9.52;79.28;100386.41;5089705;28;20448;-83
2023/12/30 03:19:02;;;;;;;28.30;16.30;;;;;;;9.47;79.39;100389.00;5089836;28;20024;-83
2023/12/30 03:21:27;;;;;;;28.85;15.68;;;;;;;9.46;79.06;100389.88;5102271;28;20052;-82
2023/12/30 03:23:53;;;;;;;29.67;16.03;;;;;;;9.48;79.11;100389.91;5108580;28;20055;-83
2023/12/30 03:26:18;;;;;;;36.53;15.70;;;;;;;9.51;79.16;100395.16;5079362;28;20502;-83
2023/12/30 03:28:44;;;;;;;28.60;15.90;;;;;;;9.51;78.95;100389.00;5089102;28;20180;-82
2023/12/30 03:31:28;;;;;;;30.53;16.57;;;;;;;9.47;79.11;100378.50;5089433;28;20552;-84
2023/12/30 03:33:55;;;;;;;33.17;15.35;;;;;;;9.46;79.18;100382.00;5089355;28;20032;-83
2023/12/30 03:36:20;;;;;;;36.28;15.75;;;;;;;9.50;79.46;100388.16;5089596;28;20032;-84
2023/12/30 03:38:48;;;;;;;27.67;15.17;;;;;;;9.53;78.87;100388.16;5089529;28;20104;-83
2023/12/30 03:41:14;;;;;;;27.48;14.57;;;;;;;9.49;79.00;100375.88;5089822;28;20039;-83
2023/12/30 03:43:39;;;;;;;28.75;15.63;;;;;;;9.50;79.02;100380.25;5089532;28;20089;-84
2023/12/30 03:46:05;;;;;;;29.17;15.23;;;;;;;9.52;78.89;100370.63;5071404;28;20058;-83
2023/12/30 03:48:30;;;;;;;30.10;16.00;;;;;;;9.50;79.11;100375.00;5089581;28;20028;-82
2023/12/30 03:50:56;;;;;;;34.57;17.23;;;;;;;9.47;79.21;100370.63;5089139;28;20040;-82
2023/12/30 03:53:21;;;;;;;30.60;15.67;;;;;;;9.48;78.80;100372.38;5070922;28;20024;-82
2023/12/30 03:55:47;;;;;;;30.73;16.10;;;;;;;9.47;78.86;100370.63;5089220;28;20031;-82
2023/12/30 03:58:12;;;;;;;30.02;15.50;;;;;;;9.40;78.85;100371.47;5089604;28;20107;-84
2023/12/30 04:00:37;;;;;;;30.90;15.50;;;;;;;9.33;78.82;100373.22;5089023;28;20028;-81
2023/12/30 04:03:03;;;;;;;27.37;14.87;;;;;;;9.30;78.95;100364.47;5089283;28;20096;-83
2023/12/30 04:05:28;;;;;;;25.83;13.82;;;;;;;9.26;79.10;100368.81;5089320;28;20027;-83
2023/12/30 04:07:54;;;;;;;30.00;14.30;;;;;;;9.29;78.91;100365.34;5089105;28;20078;-81
2023/12/30 04:10:19;;;;;;;28.13;15.23;;;;;;;9.32;79.12;100365.34;5088980;28;20027;-84
2023/12/30 04:12:45;;;;;;;27.90;15.00;;;;;;;9.30;78.61;100369.72;5089067;28;20483;-84
2023/12/30 04:15:10;;;;;;;28.37;15.20;;;;;;;9.25;78.70;100360.91;5092262;28;20020;-83
2023/12/30 04:17:36;;;;;;;26.52;13.52;;;;;;;9.23;79.08;100365.28;5093206;28;20107;-82
2023/12/30 04:20:02;;;;;;;25.05;13.57;;;;;;;9.22;78.87;100361.81;5093728;28;20040;-82
2023/12/30 04:22:28;;;;;;;27.83;14.40;;;;;;;9.23;78.80;100366.19;5113411;28;20141;-83
2023/12/30 04:24:57;;;;;;;27.92;14.10;;;;;;;9.25;79.03;100367.06;5111696;28;20071;-83
2023/12/30 04:27:22;;;;;;;26.55;14.05;;;;;;;9.25;78.63;100367.06;5093022;28;20495;-82
2023/12/30 04:29:48;;;;;;;25.90;13.77;;;;;;;9.26;79.04;100360.03;5092626;28;20028;-84
2023/12/30 04:32:13;;;;;;;23.87;13.33;;;;;;;9.27;78.71;100359.16;5092947;28;20066;-83
2023/12/30 04:34:39;;;;;;;24.73;12.55;;;;;;;9.27;78.65;100360.06;5092762;28;20107;-82
2023/12/30 04:37:04;;;;;;;24.53;13.60;;;;;;;9.28;79.02;100356.56;5092330;28;20039;-82
2023/12/30 04:39:29;;;;;;;26.90;13.73;;;;;;;9.29;78.76;100358.31;5092815;28;20020;-84
2023/12/30 04:41:55;;;;;;;26.00;13.30;;;;;;;9.30;78.65;100359.22;5092861;28;20372;-84
2023/12/30 04:44:20;;;;;;;23.83;13.00;;;;;;;9.28;78.78;100359.19;5092307;28;20476;-85
2023/12/30 04:46:46;;;;;;;28.27;13.93;;;;;;;9.28;78.59;100366.19;5092619;28;20070;-82
2023/12/30 04:49:11;;;;;;;25.37;13.40;;;;;;;9.24;78.75;100357.44;5092679;28;20365;-83
2023/12/30 04:51:37;;;;;;;27.97;13.53;;;;;;;9.23;78.81;100350.41;5092197;28;20031;-82
2023/12/30 04:54:03;;;;;;;22.98;12.90;;;;;;;9.17;78.74;100348.66;5092210;28;20036;-84
2023/12/30 04:56:29;;;;;;;24.90;14.10;;;;;;;9.16;78.83;100346.88;5092290;28;20097;-83
2023/12/30 04:58:55;;;;;;;26.37;13.97;;;;;;;9.14;78.91;100343.38;5092129;28;20024;-84
2023/12/30 05:01:20;;;;;;;28.25;14.50;;;;;;;9.11;78.99;100334.59;5092310;28;20488;-82
2023/12/30 05:03:45;;;;;;;25.83;13.63;;;;;;;9.06;78.85;100329.34;5092112;28;20032;-84
2023/12/30 05:06:18;;;;;;;30.17;14.13;;;;;;;9.04;78.56;100325.81;5092216;28;20035;-83
2023/12/30 05:08:44;;;;;;;27.70;14.40;;;;;;;9.00;78.74;100321.44;5092113;28;20063;-81
2023/12/30 05:11:09;;;;;;;22.23;12.80;;;;;;;8.96;79.09;100317.94;5091859;28;20063;-83
2023/12/30 05:13:35;;;;;;;24.40;13.63;;;;;;;8.94;78.80;100324.03;5091637;28;20028;-82
2023/12/30 05:16:00;;;;;;;26.60;14.30;;;;;;;8.93;78.95;100322.28;5091895;28;20123;-82
2023/12/30 05:18:25;;;;;;;23.63;13.13;;;;;;;8.85;78.78;100320.53;5092037;28;20028;-84
2023/12/30 05:20:51;;;;;;;25.07;13.23;;;;;;;8.81;78.94;100324.03;5099304;28;20024;-82
2023/12/30 05:23:16;;;;;;;26.60;13.63;;;;;;;8.78;79.05;100318.72;5112288;28;20047;-82
2023/12/30 05:25:41;;;;;;;23.53;13.53;;;;;;;8.79;79.26;100333.59;5103457;28;20585;-82
2023/12/30 05:28:07;;;;;;;23.63;13.43;;;;;;;8.78;79.20;100323.13;5091543;28;20031;-81
2023/12/30 05:30:32;;;;;;;22.53;13.33;;;;;;;8.77;79.13;100324.84;5091254;28;20035;-82
2023/12/30 05:32:57;;;;;;;23.43;13.30;;;;;;;8.76;79.14;100333.59;5090839;28;20106;-83
2023/12/30 05:35:23;;;;;;;25.63;13.00;;;;;;;8.76;79.11;100337.13;5073314;28;20024;-82
2023/12/30 05:37:48;;;;;;;24.73;13.27;;;;;;;8.76;79.14;100341.47;5091470;28;20028;-83
2023/12/30 05:40:14;;;;;;;23.93;12.77;;;;;;;8.76;79.18;100336.22;5091833;28;20028;-82
2023/12/30 05:42:40;;;;;;;27.63;14.07;;;;;;;8.78;78.87;100339.72;5091659;28;20861;-83
2023/12/30 05:45:06;;;;;;;25.58;14.05;;;;;;;8.73;78.90;100339.72;5091070;28;20276;-82
2023/12/30 05:47:31;;;;;;;27.13;15.53;;;;;;;8.67;78.93;100344.94;5073257;28;20048;-83
2023/12/30 05:49:56;;;;;;;29.83;15.65;;;;;;;8.64;79.21;100351.94;5091523;28;20086;-82
2023/12/30 05:52:22;;;;;;;34.13;14.90;;;;;;;8.61;79.36;100347.53;5091131;28;20107;-84
2023/12/30 05:54:47;;;;;;;30.37;15.63;;;;;;;8.61;79.15;100353.69;5091180;28;20058;-83
2023/12/30 05:57:13;;;;;;;29.97;15.80;;;;;;;8.64;79.13;100354.56;5091305;28;20535;-83
2023/12/30 05:59:40;;;;;;;31.65;16.77;;;;;;;8.61;79.25;100360.66;5090835;28;20099;-82
2023/12/30 06:02:05;;;;;;;28.70;15.75;;;;;;;8.52;79.31;100361.47;5091188;28;20035;-82
2023/12/30 06:04:31;;;;;;;27.90;14.97;;;;;;;8.47;79.40;100355.28;5091066;28;20020;-83
2023/12/30 06:06:56;;;;;;;26.23;14.53;;;;;;;8.44;79.34;100361.41;5091064;28;20454;-81
2023/12/30 06:09:22;;;;;;;29.40;14.23;;;;;;;8.42;79.85;100357.03;5090874;28;20038;-81
2023/12/30 06:11:48;;;;;;;30.23;14.93;;;;;;;8.44;79.09;100365.78;5090912;28;20317;-85
2023/12/30 06:14:14;;;;;;;26.40;14.48;;;;;;;8.41;79.25;100365.75;5090629;28;20111;-83
2023/12/30 06:16:39;;;;;;;26.45;14.30;;;;;;;8.36;79.17;100364.88;5090870;28;20028;-83
2023/12/30 06:19:05;;;;;;;27.17;13.93;;;;;;;8.33;79.44;100365.72;5090831;28;20064;-81
2023/12/30 06:21:30;;;;;;;25.10;13.20;;;;;;;8.38;79.44;100371.00;5103917;28;20544;-82
2023/12/30 06:23:55;;;;;;;26.50;13.57;;;;;;;8.41;79.38;100364.00;5091235;28;20577;-81
2023/12/30 06:26:21;;;;;;;24.90;13.90;;;;;;;8.44;79.28;100360.53;5098598;28;20035;-83
2023/12/30 06:28:46;;;;;;;24.37;13.47;;;;;;;8.45;79.43;100368.44;5090077;28;20101;-82
2023/12/30 06:31:12;;;;;;;21.47;12.93;;;;;;;8.47;79.05;100371.03;5090610;28;20170;-82
2023/12/30 06:33:38;;;;;;;31.92;14.80;;;;;;;8.43;78.81;100367.50;5090356;28;20043;-82
2023/12/30 06:36:04;;;;;;;27.10;13.87;;;;;;;8.37;78.96;100364.84;5089580;28;20051;-84
2023/12/30 06:38:30;;;;;;;26.80;13.60;;;;;;;8.32;78.98;100364.84;5090519;28;20058;-82
2023/12/30 06:40:55;;;;;;;26.43;13.23;;;;;;;8.23;78.91;100367.38;5072380;28;20123;-83
2023/12/30 06:43:20;;;;;;;23.20;12.27;;;;;;;8.19;79.00;100369.09;5090771;28;20443;-82
2023/12/30 06:45:46;;;;;;;24.03;12.17;;;;;;;8.15;78.64;100369.94;5090014;28;20030;-83
2023/12/30 06:48:11;;;;;;;25.70;12.07;;;;;;;8.16;78.99;100365.59;5090333;28;20054;-84
2023/12/30 06:50:37;;;;;;;22.70;12.40;;;;;;;8.12;78.75;100364.69;5090221;28;20032;-82
2023/12/30 06:53:02;;;;;;;23.30;12.13;;;;;;;8.05;78.36;100363.75;5090341;28;20013;-81
2023/12/30 06:55:28;;;;;;;26.40;12.07;;;;;;;8.00;78.72;100370.72;5090288;28;20825;-82
2023/12/30 06:57:53;;;;;;;22.00;11.80;;;;;;;7.98;78.91;100364.56;5089981;28;20028;-84
2023/12/30 07:00:19;;;;;;;27.50;12.80;;;;;;;7.98;78.89;100367.19;5090247;28;20104;-83
2023/12/30 07:02:44;;;;;;;22.27;11.97;;;;;;;7.98;78.65;100369.81;5072016;28;20254;-83
2023/12/30 07:05:10;;;;;;;24.17;12.03;;;;;;;7.99;78.88;100368.09;5090202;28;20039;-83
2023/12/30 07:07:36;;;;;;;24.83;12.87;;;;;;;8.00;78.68;100365.47;5090135;28;20258;-83
2023/12/30 07:10:04;;;;;;;23.65;12.50;;;;;;;8.01;78.65;100372.47;5089653;28;20039;-82
2023/12/30 07:12:29;;;;;;;23.77;11.67;;;;;;;8.00;78.54;100361.97;5090228;28;20035;-82
2023/12/30 07:14:55;;;;;;;23.23;11.67;;;;;;;7.97;78.40;100362.81;5089478;28;20020;-81
2023/12/30 07:17:20;;;;;;;22.40;11.13;;;;;;;7.97;78.61;100365.44;5089921;28;20293;-82
2023/12/30 07:19:45;;;;;;;21.90;10.93;;;;;;;7.98;78.67;100361.94;5089879;28;20103;-82
2023/12/30 07:22:12;;;;;;;21.17;12.20;;;;;;;8.00;78.22;100364.59;5108647;28;20031;-81
2023/12/30 07:24:38;;;;;;;29.75;14.27;;;;;;;7.98;78.38;100367.19;5103673;28;20044;-82
2023/12/30 07:27:04;;;;;;;32.17;14.70;;;;;;;7.95;78.34;100372.41;5071379;28;20035;-83
2023/12/30 07:29:29;;;;;;;27.07;13.87;;;;;;;7.90;78.03;100375.00;5089226;28;20048;-84
2023/12/30 07:31:55;;;;;;;29.50;14.05;;;;;;;7.86;78.26;100372.34;5089418;28;20043;-81
2023/12/30 07:34:20;;;;;;;31.33;14.27;;;;;;;7.85;78.29;100378.47;5089476;28;20431;-84
2023/12/30 07:36:47;;;;;;;28.13;13.77;;;;;;;7.83;78.06;100377.53;5089540;28;20051;-82
2023/12/30 07:39:13;;;;;;;25.55;12.85;;;;;;;7.80;78.50;100378.41;5089597;28;20016;-85
2023/12/30 07:41:38;;;;;;;23.90;13.00;;;;;;;7.79;78.46;100381.00;5089551;28;20498;-83
2023/12/30 07:44:04;;;;;;;24.40;13.02;;;;;;;7.82;78.21;100386.28;5089252;28;20255;-82
2023/12/30 07:46:29;;;;;;;28.17;13.53;;;;;;;7.87;78.33;100384.59;5089416;28;20021;-84
2023/12/30 07:48:55;;;;;;;27.37;12.47;;;;;;;7.89;78.10;100381.09;5092597;28;20099;-85
2023/12/30 07:51:20;;;;;;;25.63;13.55;;;;;;;7.91;78.43;100381.13;5093582;28;20024;-82
2023/12/30 07:53:46;;;;;;;27.17;12.80;;;;;;;7.93;78.22;100373.25;5093502;28;20039;-83
2023/12/30 07:56:11;;;;;;;24.40;13.10;;;;;;;7.94;78.27;100381.16;5093781;28;20028;-83
2023/12/30 07:58:36;;;;;;;24.57;13.43;;;;;;;7.98;78.46;100382.06;5093575;28;20030;-84
2023/12/30 08:01:02;;;;;;;26.15;14.18;;;;;;;8.03;78.49;100381.22;5093642;28;20035;-83
2023/12/30 08:03:27;;;;;;;26.60;13.03;;;;;;;8.11;78.48;100369.94;5093385;28;20035;-84
2023/12/30 08:05:53;;;;;;;27.43;12.37;;;;;;;8.16;78.13;100378.72;5093518;28;20444;-83
2023/12/30 08:08:19;;;;;;;24.13;12.03;;;;;;;8.19;78.33;100381.34;5093138;28;20020;-82
2023/12/30 08:10:44;;;;;;;24.70;13.07;;;;;;;8.24;78.40;100390.13;5093258;28;20450;-83
2023/12/30 08:13:09;;;;;;;27.80;12.67;;;;;;;8.25;77.88;100381.38;5093540;28;20032;-84
2023/12/30 08:15:35;;;;;;;23.53;13.53;;;;;;;8.25;78.27;100373.53;5092689;28;20023;-84
2023/12/30 08:18:00;;;;;;;24.75;13.32;;;;;;;8.24;78.31;100378.78;5074765;28;20068;-84
2023/12/30 08:20:25;;;;;;;29.07;13.83;;;;;;;8.24;78.22;100382.25;5095611;28;20449;-82
2023/12/30 08:22:51;;;;;;;33.87;16.77;;;;;;;8.25;78.31;100377.91;5093028;28;20078;-84
2023/12/30 08:25:16;;;;;;;32.53;15.93;;;;;;;8.25;78.05;100373.53;5101455;28;20043;-84
2023/12/30 08:27:42;;;;;;;30.60;14.93;;;;;;;8.28;78.64;100375.28;5092946;28;20492;-84
2023/12/30 08:30:08;;;;;;;24.75;13.25;;;;;;;8.29;78.49;100371.81;5092322;28;20024;-83
2023/12/30 08:32:34;;;;;;;26.58;13.25;;;;;;;8.31;78.36;100373.56;5074203;28;20365;-82
2023/12/30 08:35:02;;;;;;;22.87;11.93;;;;;;;8.33;78.23;100371.84;5092663;28;20024;-84
2023/12/30 08:37:28;;;;;;;22.02;11.85;;;;;;;8.33;78.20;100358.72;5093055;28;20093;-84
2023/12/30 08:39:54;;;;;;;21.85;11.23;;;;;;;8.37;78.23;100364.00;5092728;28;20500;-83
2023/12/30 08:42:20;;;;;;;23.47;11.93;;;;;;;8.39;78.23;100362.25;5092705;28;20469;-82
2023/12/30 08:44:45;;;;;;;23.27;11.27;;;;;;;8.40;78.00;100359.63;5092285;28;20424;-84
2023/12/30 08:47:11;;;;;;;23.93;11.70;;;;;;;8.45;77.80;100364.91;5092548;28;20071;-82
2023/12/30 08:49:37;;;;;;;27.87;12.17;;;;;;;8.46;77.92;100362.31;5092463;28;20035;-81
2023/12/30 08:52:03;;;;;;;25.15;12.18;;;;;;;8.51;77.90;100366.72;5092236;28;20039;-85
2023/12/30 08:54:29;;;;;;;26.95;13.32;;;;;;;8.52;77.90;100369.34;5092309;28;20039;-84
2023/12/30 08:56:55;;;;;;;29.60;12.97;;;;;;;8.54;77.99;100372.84;5092324;28;20020;-84
2023/12/30 08:59:21;;;;;;;22.97;12.63;;;;;;;8.60;77.94;100366.78;5091152;28;20274;-85
2023/12/30 09:01:47;;;;;;;25.23;10.85;;;;;;;8.63;77.50;100358.91;5092216;28;20114;-84
2023/12/30 09:04:12;;;;;;;24.57;12.33;;;;;;;8.67;77.62;100363.31;5092196;28;20593;-83
2023/12/30 09:06:37;;;;;;;23.03;11.70;;;;;;;8.70;77.67;100358.09;5092199;28;20028;-81
2023/12/30 09:09:04;;;;;;;27.23;12.33;;;;;;;8.71;77.51;100365.09;5092250;28;20093;-81
2023/12/30 09:11:32;;;;;;;25.30;13.27;;;;;;;8.69;77.24;100364.22;5091924;28;20123;-82
2023/12/30 09:13:58;;;;;;;24.90;13.05;;;;;;;8.71;77.19;100361.59;5091851;28;20035;-83
2023/12/30 09:16:24;;;;;;;23.83;13.40;;;;;;;8.69;77.08;100358.97;5092284;28;20028;-82
2023/12/30 09:18:49;;;;;;;24.50;12.87;;;;;;;8.71;76.96;100359.84;5073490;28;20059;-81
2023/12/30 09:21:14;;;;;;;23.67;12.00;;;;;;;8.75;76.97;100360.72;5102719;28;20046;-81
2023/12/30 09:23:40;;;;;;;23.70;12.43;;;;;;;8.76;77.18;100359.84;5111063;28;20051;-83
2023/12/30 09:26:06;;;;;;;22.80;11.05;;;;;;;8.78;77.13;100350.22;5081714;28;20171;-81
2023/12/30 09:28:32;;;;;;;25.33;12.87;;;;;;;8.82;76.97;100346.78;5091832;28;20036;-83
2023/12/30 09:30:57;;;;;;;24.98;12.68;;;;;;;8.88;77.00;100351.16;5091874;28;20032;-84
2023/12/30 09:33:23;;;;;;;22.70;12.07;;;;;;;8.95;76.81;100352.97;5091688;28;20032;-86
2023/12/30 09:35:54;;;;;;;22.30;12.02;;;;;;;8.99;76.84;100354.72;5091363;28;20076;-81
2023/12/30 09:38:20;;;;;;;22.67;11.80;;;;;;;9.08;76.99;100353.88;5091994;28;20032;-81
2023/12/30 09:40:45;;;;;;;23.58;12.07;;;;;;;9.19;76.64;100353.91;5091638;28;20024;-83
2023/12/30 09:43:14;;;;;;;24.80;12.30;;;;;;;9.28;76.72;100348.69;5091407;28;20399;-81
2023/12/30 09:45:41;;;;;;;21.55;12.18;;;;;;;9.38;76.18;100357.47;5091121;28;20024;-84
2023/12/30 09:48:08;;;;;;;24.80;12.85;;;;;;;9.41;75.86;100351.34;5091510;28;20170;-81
2023/12/30 09:50:34;;;;;;;21.08;11.05;;;;;;;9.43;76.23;100350.47;5091301;28;20270;-82
2023/12/30 09:53:00;;;;;;;22.33;11.57;;;;;;;9.52;76.05;100348.72;5073254;28;20450;-82
2023/12/30 09:55:25;;;;;;;24.23;11.70;;;;;;;9.58;75.21;100338.22;5091250;28;20024;-81
2023/12/30 09:57:50;;;;;;;19.47;11.03;;;;;;;9.62;75.33;100338.22;5091029;28;20032;-81
2023/12/30 10:00:18;;;;;;;18.70;10.80;;;;;;;9.73;75.43;100337.34;5090854;28;20081;-82
2023/12/30 10:02:44;;;;;;;20.00;11.32;;;;;;;9.81;75.29;100325.06;5091219;28;20028;-82
2023/12/30 10:05:13;;;;;;;20.93;11.43;;;;;;;9.87;74.84;100329.47;5091179;28;20054;-83
2023/12/30 10:07:38;;;;;;;20.33;11.45;;;;;;;9.95;74.88;100324.22;5072735;28;20043;-81
2023/12/30 10:10:04;;;;;;;21.27;11.50;;;;;;;10.05;74.91;100315.41;5072501;28;20052;-82
2023/12/30 10:12:30;;;;;;;20.33;10.73;;;;;;;10.12;74.87;100319.78;5090600;28;20020;-82
2023/12/30 10:14:55;;;;;;;21.63;10.83;;;;;;;10.20;74.90;100322.41;5090269;28;20450;-81
2023/12/30 10:17:21;;;;;;;20.83;11.10;;;;;;;10.27;74.58;100316.28;5090814;28;20302;-82
2023/12/30 10:19:47;;;;;;;22.43;11.57;;;;;;;10.38;74.83;100311.00;5072606;28;20065;-81
2023/12/30 10:22:12;;;;;;;19.45;10.55;;;;;;;10.37;75.25;100310.97;5109763;28;20023;-82
2023/12/30 10:24:37;;;;;;;20.07;10.93;;;;;;;10.41;74.89;100305.75;5109783;28;20040;-81
2023/12/30 10:27:04;;;;;;;21.53;11.23;;;;;;;10.55;74.93;100303.06;5092869;28;20028;-82
2023/12/30 10:29:33;;;;;;;22.02;11.57;;;;;;;10.67;74.76;100290.72;5090466;28;20044;-82
2023/12/30 10:32:03;;;;;;;22.88;11.57;;;;;;;10.76;74.72;100281.03;5072249;28;20039;-84
2023/12/30 10:34:31;;;;;;;23.08;12.57;;;;;;;10.97;74.58;100273.00;5090585;28;20023;-85
2023/12/30 10:36:58;;;;;;;21.23;11.43;;;;;;;11.16;74.23;100264.13;5090790;28;20055;-84
2023/12/30 10:39:25;;;;;;;23.40;12.07;;;;;;;11.38;74.19;100263.97;5090643;28;20092;-84
2023/12/30 10:41:50;;;;;;;20.75;12.07;;;;;;;11.61;73.46;100260.28;5090755;28;20082;-83
2023/12/30 10:44:16;;;;;;;21.43;11.53;;;;;;;11.73;73.24;100252.28;5089883;28;20062;-83
2023/12/30 10:46:47;;;;;;;21.98;11.88;;;;;;;11.92;72.78;100246.78;5090486;28;20016;-82
2023/12/30 10:49:16;;;;;;;21.17;11.32;;;;;;;12.11;73.20;100236.97;5090661;28;20035;-83
2023/12/30 10:51:43;;;;;;;21.30;11.05;;;;;;;12.29;72.95;100243.81;5090560;28;20039;-83
2023/12/30 10:54:13;;;;;;;22.77;10.60;;;;;;;12.50;72.81;100231.25;5089941;28;20085;-85
2023/12/30 10:57:02;;;;;;;18.00;10.50;;;;;;;12.70;72.08;100217.75;5090078;28;20476;-82
2023/12/30 10:59:29;;;;;;;21.27;10.40;;;;;;;12.92;72.26;100218.34;5090021;28;20031;-83
2023/12/30 11:01:55;;;;;;;17.42;10.60;;;;;;;13.10;72.09;100211.03;5090222;28;20039;-83
2023/12/30 11:04:21;;;;;;;21.63;11.40;;;;;;;13.28;71.88;100211.63;5090133;28;20032;-83
2023/12/30 11:06:56;;;;;;;23.13;11.30;;;;;;;13.42;71.50;100206.13;5089964;28;20032;-84
2023/12/30 11:09:27;;;;;;;21.13;11.52;;;;;;;13.66;71.42;100194.28;5089736;28;20626;-83
2023/12/30 11:11:53;;;;;;;25.13;11.80;;;;;;;13.89;70.91;100190.34;5071278;28;20050;-82